sensor_id;sensor_type;location;lat;lon;timestamp;P1;durP1;ratioP1;P2;durP2;ratioP2
25721;SDS011;13578;53.450;15.496;2023-05-29T00:00:53;9.15;;;2.22;;
25721;SDS011;13578;53.450;15.496;2023-05-29T00:03:53;7.28;;;2.53;;
25721;SDS011;13578;53.450;15.496;2023-05-29T00:06:54;4.47;;;2.05;;
25721;SDS011;13578;53.450;15.496;2023-05-29T00:09:55;6.07;;;2.10;;
25721;SDS011;13578;53.450;15.496;2023-05-29T00:12:57;3.25;;;1.88;;
25721;SDS011;13578;53.450;15.496;2023-05-29T00:15:58;6.22;;;2.17;;
25721;SDS011;13578;53.450;15.496;2023-05-29T00:19:00;10.70;;;2.33;;
25721;SDS011;13578;53.450;15.496;2023-05-29T00:22:01;5.22;;;2.17;;
25721;SDS011;13578;53.450;15.496;2023-05-29T00:25:01;4.50;;;2.20;;
25721;SDS011;13578;53.450;15.496;2023-05-29T00:28:03;5.82;;;2.38;;
25721;SDS011;13578;53.450;15.496;2023-05-29T00:31:03;7.72;;;2.30;;
25721;SDS011;13578;53.450;15.496;2023-05-29T00:34:04;3.75;;;1.88;;
25721;SDS011;13578;53.450;15.496;2023-05-29T00:37:05;5.93;;;1.85;;
25721;SDS011;13578;53.450;15.496;2023-05-29T00:40:06;7.90;;;2.75;;
25721;SDS011;13578;53.450;15.496;2023-05-29T00:43:07;9.35;;;2.40;;
25721;SDS011;13578;53.450;15.496;2023-05-29T00:46:09;3.90;;;2.08;;
25721;SDS011;13578;53.450;15.496;2023-05-29T00:49:10;7.53;;;2.28;;
25721;SDS011;13578;53.450;15.496;2023-05-29T00:52:11;3.53;;;1.60;;
25721;SDS011;13578;53.450;15.496;2023-05-29T00:55:13;4.15;;;2.28;;
25721;SDS011;13578;53.450;15.496;2023-05-29T00:58:14;7.10;;;2.92;;
25721;SDS011;13578;53.450;15.496;2023-05-29T01:01:16;4.43;;;2.00;;
25721;SDS011;13578;53.450;15.496;2023-05-29T01:04:18;6.78;;;1.98;;
25721;SDS011;13578;53.450;15.496;2023-05-29T01:07:21;7.00;;;3.00;;
25721;SDS011;13578;53.450;15.496;2023-05-29T01:10:21;6.50;;;1.88;;
25721;SDS011;13578;53.450;15.496;2023-05-29T01:13:23;7.32;;;2.85;;
25721;SDS011;13578;53.450;15.496;2023-05-29T01:16:31;6.45;;;1.90;;
25721;SDS011;13578;53.450;15.496;2023-05-29T01:23:23;9.77;;;2.42;;
25721;SDS011;13578;53.450;15.496;2023-05-29T01:26:47;4.97;;;2.28;;
25721;SDS011;13578;53.450;15.496;2023-05-29T01:29:56;5.10;;;2.10;;
25721;SDS011;13578;53.450;15.496;2023-05-29T01:32:58;3.40;;;1.77;;
25721;SDS011;13578;53.450;15.496;2023-05-29T01:36:00;4.22;;;1.77;;
25721;SDS011;13578;53.450;15.496;2023-05-29T01:39:00;4.45;;;1.75;;
25721;SDS011;13578;53.450;15.496;2023-05-29T01:42:01;4.25;;;1.95;;
25721;SDS011;13578;53.450;15.496;2023-05-29T01:45:03;4.05;;;2.20;;
25721;SDS011;13578;53.450;15.496;2023-05-29T01:48:06;7.50;;;2.05;;
25721;SDS011;13578;53.450;15.496;2023-05-29T01:51:07;3.30;;;1.83;;
25721;SDS011;13578;53.450;15.496;2023-05-29T01:54:09;6.63;;;2.22;;
25721;SDS011;13578;53.450;15.496;2023-05-29T01:57:10;5.45;;;1.98;;
25721;SDS011;13578;53.450;15.496;2023-05-29T02:00:12;6.68;;;2.40;;
25721;SDS011;13578;53.450;15.496;2023-05-29T02:03:13;8.07;;;2.60;;
25721;SDS011;13578;53.450;15.496;2023-05-29T02:06:14;7.47;;;2.78;;
25721;SDS011;13578;53.450;15.496;2023-05-29T02:09:16;5.93;;;2.13;;
25721;SDS011;13578;53.450;15.496;2023-05-29T02:12:17;5.18;;;1.90;;
25721;SDS011;13578;53.450;15.496;2023-05-29T02:15:18;8.30;;;3.53;;
25721;SDS011;13578;53.450;15.496;2023-05-29T02:18:19;5.95;;;2.22;;
25721;SDS011;13578;53.450;15.496;2023-05-29T02:21:20;4.43;;;2.03;;
25721;SDS011;13578;53.450;15.496;2023-05-29T02:24:20;7.53;;;2.58;;
25721;SDS011;13578;53.450;15.496;2023-05-29T02:27:21;6.07;;;2.78;;
25721;SDS011;13578;53.450;15.496;2023-05-29T02:30:21;4.88;;;2.55;;
25721;SDS011;13578;53.450;15.496;2023-05-29T02:33:22;5.28;;;2.53;;
25721;SDS011;13578;53.450;15.496;2023-05-29T02:36:23;5.55;;;2.45;;
25721;SDS011;13578;53.450;15.496;2023-05-29T02:39:24;4.53;;;1.95;;
25721;SDS011;13578;53.450;15.496;2023-05-29T02:42:24;4.88;;;2.22;;
25721;SDS011;13578;53.450;15.496;2023-05-29T02:45:25;3.28;;;2.30;;
25721;SDS011;13578;53.450;15.496;2023-05-29T02:48:25;4.82;;;2.70;;
25721;SDS011;13578;53.450;15.496;2023-05-29T02:51:26;9.02;;;2.80;;
25721;SDS011;13578;53.450;15.496;2023-05-29T02:54:27;4.47;;;2.33;;
25721;SDS011;13578;53.450;15.496;2023-05-29T02:57:28;2.95;;;2.10;;
25721;SDS011;13578;53.450;15.496;2023-05-29T03:00:29;9.35;;;2.40;;
25721;SDS011;13578;53.450;15.496;2023-05-29T03:03:30;6.05;;;2.15;;
25721;SDS011;13578;53.450;15.496;2023-05-29T03:06:31;3.85;;;2.20;;
25721;SDS011;13578;53.450;15.496;2023-05-29T03:09:32;6.07;;;2.88;;
25721;SDS011;13578;53.450;15.496;2023-05-29T03:12:33;6.82;;;2.40;;
25721;SDS011;13578;53.450;15.496;2023-05-29T03:15:33;9.80;;;2.88;;
25721;SDS011;13578;53.450;15.496;2023-05-29T03:18:34;9.20;;;3.13;;
25721;SDS011;13578;53.450;15.496;2023-05-29T03:21:35;6.18;;;2.10;;
25721;SDS011;13578;53.450;15.496;2023-05-29T03:24:36;6.00;;;2.47;;
25721;SDS011;13578;53.450;15.496;2023-05-29T03:27:36;6.35;;;2.55;;
25721;SDS011;13578;53.450;15.496;2023-05-29T03:30:37;5.60;;;2.70;;
25721;SDS011;13578;53.450;15.496;2023-05-29T03:33:38;6.82;;;2.90;;
25721;SDS011;13578;53.450;15.496;2023-05-29T03:36:38;5.03;;;2.17;;
25721;SDS011;13578;53.450;15.496;2023-05-29T03:39:39;10.75;;;2.40;;
25721;SDS011;13578;53.450;15.496;2023-05-29T03:42:40;7.65;;;2.08;;
25721;SDS011;13578;53.450;15.496;2023-05-29T03:45:40;4.57;;;2.47;;
25721;SDS011;13578;53.450;15.496;2023-05-29T03:48:41;5.60;;;2.33;;
25721;SDS011;13578;53.450;15.496;2023-05-29T03:51:42;3.03;;;1.80;;
25721;SDS011;13578;53.450;15.496;2023-05-29T03:54:42;6.13;;;2.15;;
25721;SDS011;13578;53.450;15.496;2023-05-29T03:57:44;7.70;;;2.25;;
25721;SDS011;13578;53.450;15.496;2023-05-29T04:00:45;3.40;;;1.95;;
25721;SDS011;13578;53.450;15.496;2023-05-29T04:03:46;5.43;;;2.08;;
25721;SDS011;13578;53.450;15.496;2023-05-29T04:06:47;4.40;;;1.98;;
25721;SDS011;13578;53.450;15.496;2023-05-29T04:09:47;4.43;;;1.77;;
25721;SDS011;13578;53.450;15.496;2023-05-29T04:12:48;4.53;;;2.22;;
25721;SDS011;13578;53.450;15.496;2023-05-29T04:15:49;5.07;;;2.03;;
25721;SDS011;13578;53.450;15.496;2023-05-29T04:18:52;3.97;;;1.75;;
25721;SDS011;13578;53.450;15.496;2023-05-29T04:21:53;3.90;;;1.98;;
25721;SDS011;13578;53.450;15.496;2023-05-29T04:24:54;5.95;;;2.20;;
25721;SDS011;13578;53.450;15.496;2023-05-29T04:27:54;7.95;;;2.17;;
25721;SDS011;13578;53.450;15.496;2023-05-29T04:30:56;6.45;;;1.85;;
25721;SDS011;13578;53.450;15.496;2023-05-29T04:33:56;4.53;;;1.75;;
25721;SDS011;13578;53.450;15.496;2023-05-29T04:36:57;4.60;;;1.42;;
25721;SDS011;13578;53.450;15.496;2023-05-29T04:39:58;9.20;;;1.98;;
25721;SDS011;13578;53.450;15.496;2023-05-29T04:42:58;4.65;;;1.70;;
25721;SDS011;13578;53.450;15.496;2023-05-29T04:46:02;2.20;;;1.58;;
25721;SDS011;13578;53.450;15.496;2023-05-29T04:49:03;4.60;;;1.88;;
25721;SDS011;13578;53.450;15.496;2023-05-29T04:52:04;3.20;;;1.50;;
25721;SDS011;13578;53.450;15.496;2023-05-29T04:55:05;2.97;;;1.80;;
25721;SDS011;13578;53.450;15.496;2023-05-29T04:58:06;15.07;;;3.33;;
25721;SDS011;13578;53.450;15.496;2023-05-29T05:01:08;4.55;;;1.67;;
25721;SDS011;13578;53.450;15.496;2023-05-29T05:04:09;4.68;;;1.50;;
25721;SDS011;13578;53.450;15.496;2023-05-29T05:07:10;3.03;;;1.50;;
25721;SDS011;13578;53.450;15.496;2023-05-29T05:10:11;4.32;;;1.73;;
25721;SDS011;13578;53.450;15.496;2023-05-29T05:13:11;8.60;;;1.73;;
25721;SDS011;13578;53.450;15.496;2023-05-29T05:16:12;4.03;;;1.23;;
25721;SDS011;13578;53.450;15.496;2023-05-29T05:19:13;5.10;;;1.40;;
25721;SDS011;13578;53.450;15.496;2023-05-29T05:22:14;2.15;;;1.13;;
25721;SDS011;13578;53.450;15.496;2023-05-29T05:25:14;4.00;;;1.23;;
25721;SDS011;13578;53.450;15.496;2023-05-29T05:28:15;10.63;;;1.92;;
25721;SDS011;13578;53.450;15.496;2023-05-29T05:31:15;4.93;;;1.83;;
25721;SDS011;13578;53.450;15.496;2023-05-29T05:34:16;6.07;;;1.58;;
25721;SDS011;13578;53.450;15.496;2023-05-29T05:37:17;3.78;;;2.05;;
25721;SDS011;13578;53.450;15.496;2023-05-29T05:40:18;3.95;;;1.60;;
25721;SDS011;13578;53.450;15.496;2023-05-29T05:43:18;3.08;;;1.10;;
25721;SDS011;13578;53.450;15.496;2023-05-29T05:46:19;2.47;;;1.05;;
25721;SDS011;13578;53.450;15.496;2023-05-29T05:49:20;6.65;;;1.90;;
25721;SDS011;13578;53.450;15.496;2023-05-29T05:52:20;7.35;;;1.85;;
25721;SDS011;13578;53.450;15.496;2023-05-29T05:55:21;4.53;;;1.25;;
25721;SDS011;13578;53.450;15.496;2023-05-29T05:58:22;5.10;;;1.35;;
25721;SDS011;13578;53.450;15.496;2023-05-29T06:01:22;4.20;;;1.58;;
25721;SDS011;13578;53.450;15.496;2023-05-29T06:04:23;4.38;;;1.75;;
25721;SDS011;13578;53.450;15.496;2023-05-29T06:07:24;4.88;;;1.67;;
25721;SDS011;13578;53.450;15.496;2023-05-29T06:10:24;5.93;;;1.73;;
25721;SDS011;13578;53.450;15.496;2023-05-29T06:13:25;7.43;;;1.77;;
25721;SDS011;13578;53.450;15.496;2023-05-29T06:16:26;4.35;;;1.33;;
25721;SDS011;13578;53.450;15.496;2023-05-29T06:19:26;7.78;;;1.50;;
25721;SDS011;13578;53.450;15.496;2023-05-29T06:22:27;6.22;;;1.40;;
25721;SDS011;13578;53.450;15.496;2023-05-29T06:25:28;5.50;;;1.42;;
25721;SDS011;13578;53.450;15.496;2023-05-29T06:28:33;7.55;;;1.48;;
25721;SDS011;13578;53.450;15.496;2023-05-29T06:31:33;5.80;;;1.33;;
25721;SDS011;13578;53.450;15.496;2023-05-29T06:34:34;7.13;;;1.20;;
25721;SDS011;13578;53.450;15.496;2023-05-29T06:37:35;3.58;;;1.02;;
25721;SDS011;13578;53.450;15.496;2023-05-29T06:40:36;6.57;;;2.00;;
25721;SDS011;13578;53.450;15.496;2023-05-29T06:43:36;12.30;;;1.30;;
25721;SDS011;13578;53.450;15.496;2023-05-29T06:46:37;4.90;;;1.17;;
25721;SDS011;13578;53.450;15.496;2023-05-29T06:49:38;3.05;;;1.23;;
25721;SDS011;13578;53.450;15.496;2023-05-29T06:52:39;5.60;;;1.20;;
25721;SDS011;13578;53.450;15.496;2023-05-29T06:55:40;6.03;;;1.00;;
25721;SDS011;13578;53.450;15.496;2023-05-29T06:58:41;6.20;;;1.65;;
25721;SDS011;13578;53.450;15.496;2023-05-29T07:01:41;6.95;;;1.50;;
25721;SDS011;13578;53.450;15.496;2023-05-29T07:04:42;9.35;;;1.65;;
25721;SDS011;13578;53.450;15.496;2023-05-29T07:07:43;4.95;;;1.85;;
25721;SDS011;13578;53.450;15.496;2023-05-29T07:10:43;7.57;;;1.30;;
25721;SDS011;13578;53.450;15.496;2023-05-29T07:13:44;4.38;;;1.42;;
25721;SDS011;13578;53.450;15.496;2023-05-29T07:16:45;3.92;;;1.15;;
25721;SDS011;13578;53.450;15.496;2023-05-29T07:19:45;6.80;;;1.42;;
25721;SDS011;13578;53.450;15.496;2023-05-29T07:22:46;6.93;;;0.90;;
25721;SDS011;13578;53.450;15.496;2023-05-29T07:25:47;7.82;;;1.77;;
25721;SDS011;13578;53.450;15.496;2023-05-29T07:28:48;2.88;;;0.98;;
25721;SDS011;13578;53.450;15.496;2023-05-29T07:31:50;8.23;;;2.80;;
25721;SDS011;13578;53.450;15.496;2023-05-29T07:34:51;6.82;;;2.20;;
25721;SDS011;13578;53.450;15.496;2023-05-29T07:37:51;4.82;;;1.60;;
25721;SDS011;13578;53.450;15.496;2023-05-29T07:40:54;3.40;;;1.00;;
25721;SDS011;13578;53.450;15.496;2023-05-29T07:43:54;7.03;;;1.30;;
25721;SDS011;13578;53.450;15.496;2023-05-29T07:46:56;8.50;;;1.10;;
25721;SDS011;13578;53.450;15.496;2023-05-29T07:49:56;4.25;;;0.68;;
25721;SDS011;13578;53.450;15.496;2023-05-29T07:52:57;5.32;;;1.23;;
25721;SDS011;13578;53.450;15.496;2023-05-29T07:55:59;3.58;;;1.13;;
25721;SDS011;13578;53.450;15.496;2023-05-29T07:59:00;5.10;;;0.70;;
25721;SDS011;13578;53.450;15.496;2023-05-29T08:02:01;4.47;;;0.82;;
25721;SDS011;13578;53.450;15.496;2023-05-29T08:05:03;8.13;;;1.00;;
25721;SDS011;13578;53.450;15.496;2023-05-29T08:08:04;3.80;;;0.88;;
25721;SDS011;13578;53.450;15.496;2023-05-29T08:11:06;6.43;;;1.35;;
25721;SDS011;13578;53.450;15.496;2023-05-29T08:14:06;8.05;;;1.35;;
25721;SDS011;13578;53.450;15.496;2023-05-29T08:17:07;12.88;;;2.28;;
25721;SDS011;13578;53.450;15.496;2023-05-29T08:20:08;4.50;;;0.82;;
25721;SDS011;13578;53.450;15.496;2023-05-29T08:23:10;2.88;;;0.85;;
25721;SDS011;13578;53.450;15.496;2023-05-29T08:26:11;7.10;;;1.42;;
25721;SDS011;13578;53.450;15.496;2023-05-29T08:29:12;4.97;;;1.45;;
25721;SDS011;13578;53.450;15.496;2023-05-29T08:32:13;6.78;;;1.88;;
25721;SDS011;13578;53.450;15.496;2023-05-29T08:35:13;7.80;;;1.65;;
25721;SDS011;13578;53.450;15.496;2023-05-29T08:38:14;4.72;;;0.85;;
25721;SDS011;13578;53.450;15.496;2023-05-29T08:41:23;3.33;;;1.00;;
25721;SDS011;13578;53.450;15.496;2023-05-29T08:44:30;2.63;;;0.90;;
25721;SDS011;13578;53.450;15.496;2023-05-29T08:47:33;4.63;;;1.08;;
25721;SDS011;13578;53.450;15.496;2023-05-29T08:50:33;3.50;;;1.02;;
25721;SDS011;13578;53.450;15.496;2023-05-29T08:53:35;5.60;;;1.52;;
25721;SDS011;13578;53.450;15.496;2023-05-29T08:56:36;5.72;;;0.90;;
25721;SDS011;13578;53.450;15.496;2023-05-29T08:59:36;6.72;;;1.50;;
25721;SDS011;13578;53.450;15.496;2023-05-29T09:02:40;7.72;;;0.82;;
25721;SDS011;13578;53.450;15.496;2023-05-29T09:05:41;3.72;;;1.00;;
25721;SDS011;13578;53.450;15.496;2023-05-29T09:08:43;5.95;;;1.35;;
25721;SDS011;13578;53.450;15.496;2023-05-29T09:11:44;7.70;;;1.00;;
25721;SDS011;13578;53.450;15.496;2023-05-29T09:14:45;6.60;;;1.65;;
25721;SDS011;13578;53.450;15.496;2023-05-29T09:17:52;5.05;;;0.95;;
25721;SDS011;13578;53.450;15.496;2023-05-29T09:20:55;7.30;;;1.10;;
25721;SDS011;13578;53.450;15.496;2023-05-29T09:24:01;7.00;;;1.08;;
25721;SDS011;13578;53.450;15.496;2023-05-29T09:27:04;7.72;;;0.80;;
25721;SDS011;13578;53.450;15.496;2023-05-29T09:30:05;3.53;;;1.10;;
25721;SDS011;13578;53.450;15.496;2023-05-29T09:33:07;4.57;;;1.15;;
25721;SDS011;13578;53.450;15.496;2023-05-29T09:36:18;4.50;;;0.90;;
25721;SDS011;13578;53.450;15.496;2023-05-29T09:39:21;3.40;;;1.13;;
25721;SDS011;13578;53.450;15.496;2023-05-29T09:42:21;6.40;;;1.00;;
25721;SDS011;13578;53.450;15.496;2023-05-29T09:45:22;5.10;;;1.20;;
25721;SDS011;13578;53.450;15.496;2023-05-29T09:48:23;6.85;;;1.20;;
25721;SDS011;13578;53.450;15.496;2023-05-29T09:51:24;3.50;;;1.50;;
25721;SDS011;13578;53.450;15.496;2023-05-29T09:54:28;4.00;;;0.98;;
25721;SDS011;13578;53.450;15.496;2023-05-29T09:57:30;2.67;;;0.80;;
25721;SDS011;13578;53.450;15.496;2023-05-29T10:00:31;3.28;;;0.93;;
25721;SDS011;13578;53.450;15.496;2023-05-29T10:03:32;3.47;;;0.77;;
25721;SDS011;13578;53.450;15.496;2023-05-29T10:06:35;7.30;;;1.80;;
25721;SDS011;13578;53.450;15.496;2023-05-29T10:09:41;4.40;;;0.68;;
25721;SDS011;13578;53.450;15.496;2023-05-29T10:12:44;8.48;;;0.93;;
25721;SDS011;13578;53.450;15.496;2023-05-29T10:15:48;4.32;;;0.90;;
25721;SDS011;13578;53.450;15.496;2023-05-29T10:18:55;2.65;;;0.95;;
25721;SDS011;13578;53.450;15.496;2023-05-29T10:21:56;6.25;;;0.95;;
25721;SDS011;13578;53.450;15.496;2023-05-29T10:24:57;7.43;;;1.00;;
25721;SDS011;13578;53.450;15.496;2023-05-29T10:27:59;6.35;;;1.00;;
25721;SDS011;13578;53.450;15.496;2023-05-29T10:31:01;3.47;;;1.00;;
25721;SDS011;13578;53.450;15.496;2023-05-29T10:34:43;3.17;;;0.80;;
25721;SDS011;13578;53.450;15.496;2023-05-29T10:38:02;3.20;;;0.75;;
25721;SDS011;13578;53.450;15.496;2023-05-29T10:47:32;10.13;;;0.85;;
25721;SDS011;13578;53.450;15.496;2023-05-29T10:50:42;6.38;;;1.13;;
25721;SDS011;13578;53.450;15.496;2023-05-29T10:53:45;4.78;;;1.05;;
25721;SDS011;13578;53.450;15.496;2023-05-29T10:57:19;5.90;;;0.80;;
25721;SDS011;13578;53.450;15.496;2023-05-29T11:00:15;9.70;;;1.10;;
25721;SDS011;13578;53.450;15.496;2023-05-29T11:03:22;4.30;;;0.60;;
25721;SDS011;13578;53.450;15.496;2023-05-29T11:06:41;6.03;;;0.60;;
25721;SDS011;13578;53.450;15.496;2023-05-29T11:09:42;4.15;;;0.77;;
25721;SDS011;13578;53.450;15.496;2023-05-29T11:12:57;7.28;;;1.15;;
25721;SDS011;13578;53.450;15.496;2023-05-29T11:16:16;7.35;;;1.00;;
25721;SDS011;13578;53.450;15.496;2023-05-29T11:19:19;6.85;;;1.00;;
25721;SDS011;13578;53.450;15.496;2023-05-29T11:22:21;5.03;;;1.05;;
25721;SDS011;13578;53.450;15.496;2023-05-29T11:25:27;3.38;;;0.77;;
25721;SDS011;13578;53.450;15.496;2023-05-29T11:28:29;3.83;;;1.20;;
25721;SDS011;13578;53.450;15.496;2023-05-29T11:31:31;5.13;;;1.48;;
25721;SDS011;13578;53.450;15.496;2023-05-29T11:34:35;5.32;;;1.05;;
25721;SDS011;13578;53.450;15.496;2023-05-29T11:37:41;3.15;;;0.68;;
25721;SDS011;13578;53.450;15.496;2023-05-29T11:40:46;4.32;;;1.17;;
25721;SDS011;13578;53.450;15.496;2023-05-29T11:44:05;2.85;;;0.70;;
25721;SDS011;13578;53.450;15.496;2023-05-29T11:47:08;5.43;;;1.88;;
25721;SDS011;13578;53.450;15.496;2023-05-29T11:50:22;4.70;;;1.63;;
25721;SDS011;13578;53.450;15.496;2023-05-29T11:53:25;3.70;;;0.75;;
25721;SDS011;13578;53.450;15.496;2023-05-29T11:56:26;5.13;;;1.58;;
25721;SDS011;13578;53.450;15.496;2023-05-29T11:59:28;2.92;;;0.70;;
25721;SDS011;13578;53.450;15.496;2023-05-29T12:02:30;10.70;;;1.50;;
25721;SDS011;13578;53.450;15.496;2023-05-29T12:05:32;5.07;;;0.80;;
25721;SDS011;13578;53.450;15.496;2023-05-29T12:08:44;3.85;;;0.70;;
25721;SDS011;13578;53.450;15.496;2023-05-29T12:11:51;4.15;;;0.65;;
25721;SDS011;13578;53.450;15.496;2023-05-29T12:14:52;5.13;;;1.05;;
25721;SDS011;13578;53.450;15.496;2023-05-29T12:17:53;3.70;;;0.60;;
25721;SDS011;13578;53.450;15.496;2023-05-29T12:20:58;3.47;;;1.30;;
25721;SDS011;13578;53.450;15.496;2023-05-29T12:24:01;6.07;;;1.40;;
25721;SDS011;13578;53.450;15.496;2023-05-29T12:27:05;6.35;;;1.15;;
25721;SDS011;13578;53.450;15.496;2023-05-29T12:30:08;5.78;;;1.05;;
25721;SDS011;13578;53.450;15.496;2023-05-29T12:33:10;9.65;;;1.20;;
25721;SDS011;13578;53.450;15.496;2023-05-29T12:36:31;7.25;;;1.10;;
25721;SDS011;13578;53.450;15.496;2023-05-29T12:39:32;4.35;;;0.90;;
25721;SDS011;13578;53.450;15.496;2023-05-29T12:42:33;3.92;;;1.10;;
25721;SDS011;13578;53.450;15.496;2023-05-29T12:45:34;5.95;;;0.85;;
25721;SDS011;13578;53.450;15.496;2023-05-29T12:48:35;3.20;;;1.02;;
25721;SDS011;13578;53.450;15.496;2023-05-29T12:51:42;4.90;;;0.60;;
25721;SDS011;13578;53.450;15.496;2023-05-29T12:54:44;9.80;;;1.48;;
25721;SDS011;13578;53.450;15.496;2023-05-29T12:57:44;2.17;;;0.68;;
25721;SDS011;13578;53.450;15.496;2023-05-29T13:00:46;5.68;;;1.20;;
25721;SDS011;13578;53.450;15.496;2023-05-29T13:03:47;5.05;;;1.10;;
25721;SDS011;13578;53.450;15.496;2023-05-29T13:06:48;3.58;;;0.93;;
25721;SDS011;13578;53.450;15.496;2023-05-29T13:09:49;8.40;;;0.88;;
25721;SDS011;13578;53.450;15.496;2023-05-29T13:12:49;4.28;;;1.23;;
25721;SDS011;13578;53.450;15.496;2023-05-29T13:15:53;7.47;;;0.65;;
25721;SDS011;13578;53.450;15.496;2023-05-29T13:18:54;5.35;;;1.10;;
25721;SDS011;13578;53.450;15.496;2023-05-29T13:21:55;3.70;;;0.82;;
25721;SDS011;13578;53.450;15.496;2023-05-29T13:24:56;2.60;;;0.40;;
25721;SDS011;13578;53.450;15.496;2023-05-29T13:27:59;6.85;;;1.02;;
25721;SDS011;13578;53.450;15.496;2023-05-29T13:31:00;4.05;;;0.70;;
25721;SDS011;13578;53.450;15.496;2023-05-29T13:34:00;5.43;;;1.05;;
25721;SDS011;13578;53.450;15.496;2023-05-29T13:37:01;3.83;;;0.80;;
25721;SDS011;13578;53.450;15.496;2023-05-29T13:40:02;3.38;;;0.88;;
25721;SDS011;13578;53.450;15.496;2023-05-29T13:43:04;5.35;;;0.82;;
25721;SDS011;13578;53.450;15.496;2023-05-29T13:46:04;2.92;;;0.40;;
25721;SDS011;13578;53.450;15.496;2023-05-29T13:49:05;2.58;;;0.32;;
25721;SDS011;13578;53.450;15.496;2023-05-29T13:52:07;3.70;;;0.73;;
25721;SDS011;13578;53.450;15.496;2023-05-29T13:55:08;5.72;;;1.02;;
25721;SDS011;13578;53.450;15.496;2023-05-29T13:58:09;4.97;;;0.85;;
25721;SDS011;13578;53.450;15.496;2023-05-29T14:01:10;2.70;;;0.50;;
25721;SDS011;13578;53.450;15.496;2023-05-29T14:04:10;2.70;;;0.50;;
25721;SDS011;13578;53.450;15.496;2023-05-29T14:07:11;3.70;;;0.50;;
25721;SDS011;13578;53.450;15.496;2023-05-29T14:10:12;3.72;;;1.02;;
25721;SDS011;13578;53.450;15.496;2023-05-29T14:13:12;1.77;;;0.60;;
25721;SDS011;13578;53.450;15.496;2023-05-29T14:16:13;4.78;;;0.73;;
25721;SDS011;13578;53.450;15.496;2023-05-29T14:19:15;5.50;;;1.05;;
25721;SDS011;13578;53.450;15.496;2023-05-29T14:22:16;3.80;;;0.80;;
25721;SDS011;13578;53.450;15.496;2023-05-29T14:25:17;11.65;;;2.72;;
25721;SDS011;13578;53.450;15.496;2023-05-29T14:28:17;7.20;;;0.85;;
25721;SDS011;13578;53.450;15.496;2023-05-29T14:31:18;6.53;;;0.60;;
25721;SDS011;13578;53.450;15.496;2023-05-29T14:34:18;5.28;;;0.77;;
25721;SDS011;13578;53.450;15.496;2023-05-29T14:37:19;3.38;;;0.80;;
25721;SDS011;13578;53.450;15.496;2023-05-29T14:40:20;4.75;;;0.80;;
25721;SDS011;13578;53.450;15.496;2023-05-29T14:43:21;6.00;;;0.80;;
25721;SDS011;13578;53.450;15.496;2023-05-29T14:46:21;4.38;;;1.10;;
25721;SDS011;13578;53.450;15.496;2023-05-29T14:49:22;3.78;;;0.95;;
25721;SDS011;13578;53.450;15.496;2023-05-29T14:52:23;6.45;;;0.82;;
25721;SDS011;13578;53.450;15.496;2023-05-29T14:55:24;2.83;;;0.70;;
25721;SDS011;13578;53.450;15.496;2023-05-29T14:58:24;5.82;;;0.95;;
25721;SDS011;13578;53.450;15.496;2023-05-29T15:01:25;6.75;;;0.98;;
25721;SDS011;13578;53.450;15.496;2023-05-29T15:04:26;1.92;;;0.52;;
25721;SDS011;13578;53.450;15.496;2023-05-29T15:07:26;3.80;;;0.73;;
25721;SDS011;13578;53.450;15.496;2023-05-29T15:10:27;9.45;;;1.35;;
25721;SDS011;13578;53.450;15.496;2023-05-29T15:13:28;4.82;;;0.90;;
25721;SDS011;13578;53.450;15.496;2023-05-29T15:16:29;3.83;;;0.82;;
25721;SDS011;13578;53.450;15.496;2023-05-29T15:19:29;3.38;;;0.50;;
25721;SDS011;13578;53.450;15.496;2023-05-29T15:22:31;7.30;;;0.93;;
25721;SDS011;13578;53.450;15.496;2023-05-29T15:25:32;2.97;;;0.60;;
25721;SDS011;13578;53.450;15.496;2023-05-29T15:28:32;3.85;;;0.82;;
25721;SDS011;13578;53.450;15.496;2023-05-29T15:31:33;5.05;;;0.73;;
25721;SDS011;13578;53.450;15.496;2023-05-29T15:34:34;7.47;;;0.98;;
25721;SDS011;13578;53.450;15.496;2023-05-29T15:37:35;3.15;;;0.73;;
25721;SDS011;13578;53.450;15.496;2023-05-29T15:40:35;7.32;;;0.80;;
25721;SDS011;13578;53.450;15.496;2023-05-29T15:43:36;5.85;;;1.08;;
25721;SDS011;13578;53.450;15.496;2023-05-29T15:46:37;1.38;;;0.47;;
25721;SDS011;13578;53.450;15.496;2023-05-29T15:49:37;9.32;;;1.20;;
25721;SDS011;13578;53.450;15.496;2023-05-29T15:52:38;3.28;;;0.73;;
25721;SDS011;13578;53.450;15.496;2023-05-29T15:55:39;5.10;;;0.90;;
25721;SDS011;13578;53.450;15.496;2023-05-29T15:58:39;4.95;;;1.17;;
25721;SDS011;13578;53.450;15.496;2023-05-29T16:01:40;6.28;;;1.95;;
25721;SDS011;13578;53.450;15.496;2023-05-29T16:04:41;12.07;;;2.83;;
25721;SDS011;13578;53.450;15.496;2023-05-29T16:07:41;8.95;;;1.20;;
25721;SDS011;13578;53.450;15.496;2023-05-29T16:13:47;5.47;;;0.80;;
25721;SDS011;13578;53.450;15.496;2023-05-29T16:16:48;6.82;;;0.90;;
25721;SDS011;13578;53.450;15.496;2023-05-29T16:19:48;3.63;;;1.20;;
25721;SDS011;13578;53.450;15.496;2023-05-29T16:22:49;3.58;;;0.82;;
25721;SDS011;13578;53.450;15.496;2023-05-29T16:25:51;3.60;;;0.88;;
25721;SDS011;13578;53.450;15.496;2023-05-29T16:28:52;8.45;;;1.83;;
25721;SDS011;13578;53.450;15.496;2023-05-29T16:31:54;3.88;;;0.80;;
25721;SDS011;13578;53.450;15.496;2023-05-29T16:34:54;6.35;;;1.38;;
25721;SDS011;13578;53.450;15.496;2023-05-29T16:37:57;3.75;;;0.90;;
25721;SDS011;13578;53.450;15.496;2023-05-29T16:40:58;4.10;;;1.05;;
25721;SDS011;13578;53.450;15.496;2023-05-29T16:43:58;9.10;;;0.95;;
25721;SDS011;13578;53.450;15.496;2023-05-29T16:46:59;9.40;;;0.85;;
25721;SDS011;13578;53.450;15.496;2023-05-29T16:50:00;4.93;;;1.08;;
25721;SDS011;13578;53.450;15.496;2023-05-29T16:53:00;4.80;;;0.98;;
25721;SDS011;13578;53.450;15.496;2023-05-29T16:56:01;5.45;;;1.08;;
25721;SDS011;13578;53.450;15.496;2023-05-29T16:59:02;8.65;;;1.33;;
25721;SDS011;13578;53.450;15.496;2023-05-29T17:02:04;5.07;;;0.90;;
25721;SDS011;13578;53.450;15.496;2023-05-29T17:05:05;4.18;;;0.82;;
25721;SDS011;13578;53.450;15.496;2023-05-29T17:08:09;5.07;;;0.95;;
25721;SDS011;13578;53.450;15.496;2023-05-29T17:11:10;5.63;;;0.95;;
25721;SDS011;13578;53.450;15.496;2023-05-29T17:14:11;10.80;;;1.45;;
25721;SDS011;13578;53.450;15.496;2023-05-29T17:17:13;3.47;;;1.33;;
25721;SDS011;13578;53.450;15.496;2023-05-29T17:20:14;4.22;;;0.95;;
25721;SDS011;13578;53.450;15.496;2023-05-29T17:23:16;6.97;;;1.48;;
25721;SDS011;13578;53.450;15.496;2023-05-29T17:26:16;5.00;;;0.98;;
25721;SDS011;13578;53.450;15.496;2023-05-29T17:29:17;5.85;;;0.90;;
25721;SDS011;13578;53.450;15.496;2023-05-29T17:32:18;5.28;;;0.85;;
25721;SDS011;13578;53.450;15.496;2023-05-29T17:35:19;4.57;;;0.85;;
25721;SDS011;13578;53.450;15.496;2023-05-29T17:38:20;5.90;;;0.77;;
25721;SDS011;13578;53.450;15.496;2023-05-29T17:41:21;7.45;;;0.88;;
25721;SDS011;13578;53.450;15.496;2023-05-29T17:44:21;3.55;;;0.90;;
25721;SDS011;13578;53.450;15.496;2023-05-29T17:47:22;6.45;;;0.77;;
25721;SDS011;13578;53.450;15.496;2023-05-29T17:50:22;5.28;;;1.23;;
25721;SDS011;13578;53.450;15.496;2023-05-29T17:53:23;5.65;;;0.98;;
25721;SDS011;13578;53.450;15.496;2023-05-29T17:56:26;8.13;;;1.52;;
25721;SDS011;13578;53.450;15.496;2023-05-29T17:59:27;7.38;;;0.90;;
25721;SDS011;13578;53.450;15.496;2023-05-29T18:02:28;8.02;;;1.40;;
25721;SDS011;13578;53.450;15.496;2023-05-29T18:05:29;7.63;;;1.17;;
25721;SDS011;13578;53.450;15.496;2023-05-29T18:08:30;3.97;;;0.98;;
25721;SDS011;13578;53.450;15.496;2023-05-29T18:11:30;4.35;;;0.80;;